EFW9TT LOWG-EGKK
Flight info
| Callsign | EFW9TT |
|---|---|
| Flight time | N/A |
| Altitude | 38000 |
| Route | MILGO DCT OBEDI DCT BIRGI DCT KPT L856 RAVED Y112 HOC DCT LUL DCT RLP DCT ROTSI DCT KOTUN DCT NINAL DCT KESAX DCT KUNAV |
| Aircraft | A320/M-SDE3FGHIRWY/LB1 |
Departure
| Time | 2026-04-27 16:31 |
|---|---|
| Airport | Graz Airport (LOWG) |
Arrival
| Time | N/A |
|---|---|
| Airport | London Gatwick Airport (EGKK) |
| Time | Latitude | Longitude | Altitude | Speed | Heading |
|---|---|---|---|---|---|
| 2026-04-27 16:05 | 46.99533 | 15.44338 | 1112 ft | 0 kts | 126° |
| 2026-04-27 16:26 | 46.99523 | 15.44341 | 1111 ft | 1 kts | 179° |
| 2026-04-27 16:27 | 46.99520 | 15.44270 | 1105 ft | 8 kts | 300° |
| 2026-04-27 16:27 | 46.99784 | 15.44179 | 1108 ft | 17 kts | 349° |
| 2026-04-27 16:28 | 47.00036 | 15.44111 | 1116 ft | 20 kts | 351° |
| 2026-04-27 16:28 | 47.00291 | 15.44029 | 1120 ft | 15 kts | 330° |
| 2026-04-27 16:29 | 47.00425 | 15.43646 | 1127 ft | 10 kts | 255° |
| 2026-04-27 16:30 | 47.00125 | 15.43688 | 1116 ft | 70 kts | 169° |
| 2026-04-27 16:30 | 46.98410 | 15.44179 | 1186 ft | 164 kts | 167° |
| 2026-04-27 16:31 | 46.95447 | 15.46141 | 2792 ft | 183 kts | 112° |
| 2026-04-27 16:31 | 46.96354 | 15.49715 | 3840 ft | 215 kts | 40° |
| 2026-04-27 16:32 | 46.98742 | 15.52450 | 5447 ft | 220 kts | 38° |
| 2026-04-27 16:32 | 46.99956 | 15.53825 | 6295 ft | 222 kts | 36° |
| 2026-04-27 16:33 | 47.02544 | 15.56325 | 7536 ft | 237 kts | 8° |
| 2026-04-27 16:33 | 47.04211 | 15.56046 | 7892 ft | 255 kts | 332° |
| 2026-04-27 16:33 | 47.05548 | 15.54271 | 8471 ft | 266 kts | 307° |
| 2026-04-27 16:33 | 47.06689 | 15.52109 | 9307 ft | 270 kts | 308° |
| 2026-04-27 16:34 | 47.07857 | 15.49940 | 10216 ft | 271 kts | 308° |
| 2026-04-27 16:34 | 47.09071 | 15.47711 | 10611 ft | 291 kts | 308° |
| 2026-04-27 16:34 | 47.10390 | 15.45306 | 10812 ft | 314 kts | 308° |
| 2026-04-27 16:34 | 47.11810 | 15.42722 | 11032 ft | 334 kts | 308° |
| 2026-04-27 16:35 | 47.13291 | 15.40035 | 11590 ft | 342 kts | 308° |
| 2026-04-27 16:35 | 47.14797 | 15.37305 | 12251 ft | 345 kts | 308° |
| 2026-04-27 16:35 | 47.17844 | 15.31772 | 13696 ft | 351 kts | 308° |
| 2026-04-27 16:36 | 47.19385 | 15.28963 | 14346 ft | 355 kts | 308° |
| 2026-04-27 16:36 | 47.20936 | 15.26130 | 15009 ft | 357 kts | 308° |
| 2026-04-27 16:36 | 47.22499 | 15.23270 | 15617 ft | 360 kts | 308° |
| 2026-04-27 16:36 | 47.24052 | 15.20420 | 16189 ft | 363 kts | 308° |
| 2026-04-27 16:37 | 47.25641 | 15.17500 | 16781 ft | 367 kts | 308° |
| 2026-04-27 16:37 | 47.27247 | 15.14549 | 17364 ft | 372 kts | 308° |
| 2026-04-27 16:37 | 47.28697 | 15.11364 | 17962 ft | 377 kts | 298° |
| 2026-04-27 16:37 | 47.29722 | 15.07779 | 18563 ft | 382 kts | 288° |
| 2026-04-27 16:38 | 47.30259 | 15.03934 | 19185 ft | 385 kts | 278° |
| 2026-04-27 16:38 | 47.30384 | 14.99979 | 19788 ft | 388 kts | 274° |
| 2026-04-27 16:38 | 47.30468 | 14.95991 | 20349 ft | 391 kts | 274° |
| 2026-04-27 16:38 | 47.30551 | 14.91973 | 20877 ft | 394 kts | 274° |
| 2026-04-27 16:39 | 47.30634 | 14.87922 | 21345 ft | 397 kts | 274° |
| 2026-04-27 16:39 | 47.30719 | 14.83843 | 21823 ft | 400 kts | 274° |
| 2026-04-27 16:39 | 47.30804 | 14.79736 | 22288 ft | 402 kts | 274° |
| 2026-04-27 16:39 | 47.30889 | 14.75595 | 22714 ft | 406 kts | 274° |
| 2026-04-27 16:40 | 47.30971 | 14.71430 | 23135 ft | 409 kts | 274° |
| 2026-04-27 16:40 | 47.31051 | 14.67267 | 23571 ft | 412 kts | 274° |
| 2026-04-27 16:40 | 47.31131 | 14.63027 | 23935 ft | 414 kts | 274° |
| 2026-04-27 16:40 | 47.31209 | 14.58777 | 24310 ft | 416 kts | 274° |
| 2026-04-27 16:41 | 47.31286 | 14.54504 | 24699 ft | 418 kts | 274° |
| 2026-04-27 16:41 | 47.31361 | 14.50205 | 25062 ft | 420 kts | 274° |
| 2026-04-27 16:41 | 47.31433 | 14.45892 | 25419 ft | 422 kts | 274° |
| 2026-04-27 16:41 | 47.31502 | 14.41551 | 25782 ft | 424 kts | 274° |
| 2026-04-27 16:42 | 47.31570 | 14.37198 | 26113 ft | 426 kts | 274° |
| 2026-04-27 16:42 | 47.31638 | 14.32822 | 26463 ft | 428 kts | 274° |
| 2026-04-27 16:42 | 47.31704 | 14.28489 | 26809 ft | 430 kts | 274° |
| 2026-04-27 16:42 | 47.31773 | 14.24072 | 27146 ft | 432 kts | 274° |
| 2026-04-27 16:43 | 47.31845 | 14.19639 | 27459 ft | 434 kts | 274° |
| 2026-04-27 16:43 | 47.31913 | 14.15181 | 27821 ft | 435 kts | 274° |
| 2026-04-27 16:43 | 47.31975 | 14.10724 | 28282 ft | 434 kts | 274° |
| 2026-04-27 16:43 | 47.32034 | 14.06286 | 28779 ft | 432 kts | 274° |
| 2026-04-27 16:44 | 47.32091 | 14.01863 | 29220 ft | 431 kts | 274° |
| 2026-04-27 16:44 | 47.32151 | 13.97448 | 29658 ft | 430 kts | 274° |
| 2026-04-27 16:44 | 47.32211 | 13.93040 | 30162 ft | 429 kts | 273° |
| 2026-04-27 16:44 | 47.32268 | 13.88646 | 30546 ft | 428 kts | 274° |
| 2026-04-27 16:45 | 47.32321 | 13.84316 | 30982 ft | 427 kts | 274° |
| 2026-04-27 16:45 | 47.32370 | 13.79948 | 31418 ft | 425 kts | 274° |
| 2026-04-27 16:45 | 47.32416 | 13.75592 | 31855 ft | 425 kts | 274° |
| 2026-04-27 16:45 | 47.32459 | 13.71253 | 32307 ft | 423 kts | 274° |
| 2026-04-27 16:46 | 47.32499 | 13.66918 | 32763 ft | 422 kts | 274° |
| 2026-04-27 16:46 | 47.32539 | 13.62602 | 33240 ft | 420 kts | 274° |
| 2026-04-27 16:46 | 47.32580 | 13.58306 | 33715 ft | 419 kts | 274° |
| 2026-04-27 16:46 | 47.32622 | 13.54021 | 34162 ft | 417 kts | 274° |
| 2026-04-27 16:47 | 47.32663 | 13.49751 | 34569 ft | 416 kts | 274° |
| 2026-04-27 16:47 | 47.32700 | 13.45495 | 34937 ft | 415 kts | 274° |
| 2026-04-27 16:47 | 47.32732 | 13.41251 | 35289 ft | 414 kts | 274° |
| 2026-04-27 16:47 | 47.32762 | 13.37008 | 35633 ft | 413 kts | 273° |
| 2026-04-27 16:48 | 47.32791 | 13.32786 | 36050 ft | 411 kts | 274° |
| 2026-04-27 16:48 | 47.32837 | 13.28589 | 36429 ft | 409 kts | 274° |
| 2026-04-27 16:48 | 47.32914 | 13.24404 | 36773 ft | 408 kts | 275° |
| 2026-04-27 16:49 | 47.33105 | 13.16057 | 37420 ft | 406 kts | 275° |
| 2026-04-27 16:49 | 47.33196 | 13.11897 | 37713 ft | 406 kts | 275° |
| 2026-04-27 16:49 | 47.33280 | 13.07802 | 37984 ft | 406 kts | 275° |
| 2026-04-27 16:49 | 47.33361 | 13.03628 | 38114 ft | 408 kts | 274° |
| 2026-04-27 16:50 | 47.33507 | 12.95210 | 38119 ft | 412 kts | 274° |
| 2026-04-27 16:50 | 47.33639 | 12.86761 | 38125 ft | 412 kts | 274° |
| 2026-04-27 16:51 | 47.33749 | 12.79740 | 38127 ft | 412 kts | 274° |
| 2026-04-27 16:51 | 47.33881 | 12.71271 | 38127 ft | 413 kts | 274° |
| 2026-04-27 16:52 | 47.34003 | 12.62824 | 38127 ft | 412 kts | 274° |
| 2026-04-27 16:52 | 47.34115 | 12.54365 | 38130 ft | 413 kts | 274° |
| 2026-04-27 16:53 | 47.34226 | 12.45899 | 38139 ft | 413 kts | 274° |
| 2026-04-27 16:53 | 47.34330 | 12.37434 | 38144 ft | 412 kts | 274° |
| 2026-04-27 16:54 | 47.34431 | 12.28978 | 38133 ft | 413 kts | 274° |
| 2026-04-27 16:54 | 47.34528 | 12.20507 | 38133 ft | 413 kts | 274° |
| 2026-04-27 16:55 | 47.34614 | 12.12028 | 38140 ft | 414 kts | 274° |
| 2026-04-27 16:55 | 47.34691 | 12.03594 | 38136 ft | 413 kts | 273° |
| 2026-04-27 16:56 | 47.34800 | 11.95114 | 38132 ft | 413 kts | 278° |
| 2026-04-27 16:56 | 47.36185 | 11.86989 | 38136 ft | 408 kts | 292° |
| 2026-04-27 16:57 | 47.38231 | 11.79210 | 38127 ft | 409 kts | 292° |
| 2026-04-27 16:57 | 47.40263 | 11.71377 | 38124 ft | 408 kts | 292° |
| 2026-04-27 16:58 | 47.42290 | 11.63530 | 38141 ft | 408 kts | 291° |
| 2026-04-27 16:58 | 47.44295 | 11.55755 | 38124 ft | 407 kts | 291° |
| 2026-04-27 16:59 | 47.46302 | 11.47949 | 38122 ft | 406 kts | 291° |
| 2026-04-27 16:59 | 47.48305 | 11.40150 | 38122 ft | 405 kts | 291° |
| 2026-04-27 17:00 | 47.51289 | 11.28448 | 38121 ft | 405 kts | 291° |
| 2026-04-27 17:01 | 47.53275 | 11.20655 | 38146 ft | 404 kts | 291° |
| 2026-04-27 17:01 | 47.55245 | 11.12859 | 38146 ft | 404 kts | 291° |
| 2026-04-27 17:02 | 47.57196 | 11.05104 | 38158 ft | 404 kts | 291° |
| 2026-04-27 17:02 | 47.59156 | 10.97308 | 38158 ft | 404 kts | 291° |
| 2026-04-27 17:03 | 47.61113 | 10.89510 | 38167 ft | 403 kts | 290° |
| 2026-04-27 17:03 | 47.63056 | 10.81708 | 38174 ft | 403 kts | 290° |